Time;durP1;ratioP1;P1;durP2;ratioP2;P2;SDS_P1;SDS_P2;PMS_P1;PMS_P2;Temp;Humidity;BMP_temperature;BMP_pressure;BME280_temperature;BME280_humidity;BME280_pressure;Samples;Min_cycle;Max_cycle;Signal;HPM_P1;HPM_P2
2022/06/29 00:00:15;;;;;;;9.05;8.25;;;;;;;;;;5089568;28;20738;-77
2022/06/29 00:02:43;;;;;;;8.68;7.85;;;;;;;;;;5089594;28;20257;-78
2022/06/29 00:05:15;;;;;;;10.35;8.88;;;;;;;;;;5092388;28;20269;-78
2022/06/29 00:07:42;;;;;;;9.32;8.60;;;;;;;;;;5088085;28;20224;-78
2022/06/29 00:10:10;;;;;;;9.75;8.85;;;;;;;;;;5088397;28;20241;-78
2022/06/29 00:12:38;;;;;;;9.40;8.60;;;;;;;;;;5095684;27;20320;-78
2022/06/29 00:15:06;;;;;;;9.00;8.30;;;;;;;;;;5064252;28;20874;-76
2022/06/29 00:17:33;;;;;;;9.10;8.05;;;;;;;;;;5084557;28;20196;-78
2022/06/29 00:20:01;;;;;;;8.48;7.60;;;;;;;;;;5067775;28;20213;-78
2022/06/29 00:22:29;;;;;;;7.97;7.22;;;;;;;;;;5094351;28;20307;-79
2022/06/29 00:24:56;;;;;;;8.43;7.63;;;;;;;;;;5082315;28;20288;-77
2022/06/29 00:27:24;;;;;;;8.38;7.50;;;;;;;;;;5090329;28;20287;-77
2022/06/29 00:29:51;;;;;;;7.97;7.32;;;;;;;;;;5087111;28;20236;-78
2022/06/29 00:32:18;;;;;;;10.10;8.68;;;;;;;;;;5089659;28;20239;-77
2022/06/29 00:34:45;;;;;;;8.35;7.65;;;;;;;;;;5086730;28;20305;-77
2022/06/29 00:37:13;;;;;;;8.10;7.45;;;;;;;;;;5080603;28;20266;-77
2022/06/29 00:39:40;;;;;;;11.07;10.00;;;;;;;;;;5082295;28;20292;-77
2022/06/29 00:42:07;;;;;;;9.70;8.82;;;;;;;;;;5084951;28;20288;-76
2022/06/29 00:44:34;;;;;;;7.57;6.97;;;;;;;;;;5080212;28;20220;-78
2022/06/29 00:47:04;;;;;;;8.18;7.38;;;;;;;;;;5084683;28;20299;-79
2022/06/29 00:49:32;;;;;;;7.95;7.32;;;;;;;;;;5082463;28;20288;-78
2022/06/29 00:52:00;;;;;;;8.38;7.78;;;;;;;;;;5090064;28;20227;-80
2022/06/29 00:54:28;;;;;;;7.90;7.22;;;;;;;;;;5093560;28;20224;-77
2022/06/29 00:56:56;;;;;;;9.40;8.50;;;;;;;;;;5114437;27;20224;-80
2022/06/29 00:59:24;;;;;;;8.38;7.50;;;;;;;;;;5096442;28;20204;-80
2022/06/29 01:01:51;;;;;;;7.82;7.13;;;;;;;;;;5088207;28;20228;-81
2022/06/29 01:04:18;;;;;;;8.00;7.35;;;;;;;;;;5089298;28;20234;-81
2022/06/29 01:06:45;;;;;;;8.07;7.38;;;;;;;;;;5084871;28;20204;-81
2022/06/29 01:09:13;;;;;;;8.25;7.35;;;;;;;;;;5081798;28;20232;-78
2022/06/29 01:11:40;;;;;;;7.70;7.00;;;;;;;;;;5078956;28;20784;-79
2022/06/29 01:14:07;;;;;;;6.93;6.43;;;;;;;;;;5073053;28;20294;-78
2022/06/29 01:16:34;;;;;;;8.00;7.30;;;;;;;;;;5071292;28;20223;-77
2022/06/29 01:19:02;;;;;;;8.23;7.60;;;;;;;;;;5073530;28;20204;-77
2022/06/29 01:21:31;;;;;;;7.93;7.30;;;;;;;;;;5081520;28;20246;-79
2022/06/29 01:23:58;;;;;;;7.47;6.88;;;;;;;;;;5080692;28;20319;-77
2022/06/29 01:26:26;;;;;;;8.80;6.53;;;;;;;;;;5078588;28;20351;-78
2022/06/29 01:28:53;;;;;;;7.15;6.57;;;;;;;;;;5074276;28;20635;-79
2022/06/29 01:31:20;;;;;;;7.88;7.28;;;;;;;;;;5065857;28;20259;-79
2022/06/29 01:33:48;;;;;;;8.20;7.50;;;;;;;;;;5071963;28;20209;-78
2022/06/29 01:36:17;;;;;;;7.63;7.03;;;;;;;;;;5079217;28;20251;-78
2022/06/29 01:38:44;;;;;;;8.27;7.68;;;;;;;;;;5064205;28;20254;-78
2022/06/29 01:41:12;;;;;;;10.27;9.25;;;;;;;;;;5077152;28;20350;-78
2022/06/29 01:43:39;;;;;;;10.65;9.65;;;;;;;;;;5075796;28;20210;-78
2022/06/29 01:46:07;;;;;;;9.00;8.20;;;;;;;;;;5072795;28;20200;-78
2022/06/29 01:48:34;;;;;;;9.35;8.50;;;;;;;;;;5094856;28;20235;-77
2022/06/29 01:51:01;;;;;;;10.18;9.27;;;;;;;;;;5081099;28;20779;-76
2022/06/29 01:53:29;;;;;;;10.32;9.10;;;;;;;;;;5092725;28;20205;-77
2022/06/29 01:55:57;;;;;;;10.05;9.02;;;;;;;;;;5078525;28;20289;-78
2022/06/29 01:58:24;;;;;;;9.73;8.70;;;;;;;;;;5074451;28;20214;-77
2022/06/29 02:00:52;;;;;;;9.02;8.32;;;;;;;;;;5079941;28;20222;-77
2022/06/29 02:03:19;;;;;;;9.02;8.13;;;;;;;;;;5075641;28;20664;-78
2022/06/29 02:05:46;;;;;;;8.35;7.55;;;;;;;;;;5077570;28;20222;-78
2022/06/29 02:08:14;;;;;;;8.68;7.85;;;;;;;;;;5072524;28;20206;-78
2022/06/29 02:10:41;;;;;;;8.88;8.05;;;;;;;;;;5063136;28;20290;-79
2022/06/29 02:13:08;;;;;;;6.88;6.35;;;;;;;;;;5057638;28;20278;-78
2022/06/29 02:15:36;;;;;;;6.60;6.10;;;;;;;;;;5082007;28;20222;-78
2022/06/29 02:18:03;;;;;;;8.13;7.43;;;;;;;;;;5081794;28;20865;-78
2022/06/29 02:20:31;;;;;;;9.82;8.93;;;;;;;;;;5078853;28;20239;-77
2022/06/29 02:22:58;;;;;;;10.57;9.27;;;;;;;;;;5073354;28;20225;-77
2022/06/29 02:25:25;;;;;;;10.25;9.25;;;;;;;;;;5081344;28;20227;-78
2022/06/29 02:27:52;;;;;;;10.27;9.48;;;;;;;;;;5075747;28;20229;-78
2022/06/29 02:34:43;;;;;;;10.25;9.35;;;;;;;;;;5077813;28;20292;-77
2022/06/29 02:35:53;;;;;;;8.73;7.53;;;;;;;;;;5068772;28;20303;-77
2022/06/29 02:38:20;;;;;;;7.78;7.18;;;;;;;;;;5082401;28;20722;-78
2022/06/29 02:40:47;;;;;;;8.38;7.68;;;;;;;;;;5084899;28;20233;-78
2022/06/29 02:43:15;;;;;;;10.15;9.27;;;;;;;;;;5071555;28;20287;-79
2022/06/29 02:45:42;;;;;;;10.32;9.30;;;;;;;;;;5063351;28;20296;-77
2022/06/29 02:48:09;;;;;;;10.55;9.57;;;;;;;;;;5081946;28;20215;-77
2022/06/29 02:50:37;;;;;;;10.80;9.80;;;;;;;;;;5064550;28;20296;-79
2022/06/29 02:53:04;;;;;;;11.43;10.32;;;;;;;;;;5078098;28;20890;-79
2022/06/29 02:55:31;;;;;;;11.55;10.45;;;;;;;;;;5081935;28;20274;-78
2022/06/29 02:57:59;;;;;;;12.88;11.70;;;;;;;;;;5084892;28;20200;-78
2022/06/29 03:00:26;;;;;;;12.63;11.43;;;;;;;;;;5072028;28;20273;-79
2022/06/29 03:02:53;;;;;;;12.43;11.38;;;;;;;;;;5065229;28;20250;-78
2022/06/29 03:05:21;;;;;;;11.75;10.75;;;;;;;;;;5090992;28;20245;-78
2022/06/29 03:07:48;;;;;;;12.25;11.05;;;;;;;;;;5087120;28;20254;-77
2022/06/29 03:10:15;;;;;;;13.15;11.95;;;;;;;;;;5090666;28;20212;-79
2022/06/29 03:12:43;;;;;;;14.15;12.75;;;;;;;;;;5070370;28;20283;-78
2022/06/29 03:15:10;;;;;;;14.30;13.00;;;;;;;;;;5078345;28;20291;-78
2022/06/29 03:17:37;;;;;;;13.38;12.18;;;;;;;;;;5075698;28;20276;-79
2022/06/29 03:20:05;;;;;;;13.05;11.93;;;;;;;;;;5088764;28;20200;-78
2022/06/29 03:22:34;;;;;;;14.00;12.63;;;;;;;;;;5077795;28;20236;-76
2022/06/29 03:25:01;;;;;;;14.45;13.15;;;;;;;;;;5086031;28;20252;-77
2022/06/29 03:27:29;;;;;;;15.07;13.68;;;;;;;;;;5095757;28;20225;-77
2022/06/29 03:29:56;;;;;;;15.60;14.07;;;;;;;;;;5094441;28;20236;-77
2022/06/29 03:32:23;;;;;;;14.18;12.60;;;;;;;;;;5080138;28;20302;-77
2022/06/29 03:34:50;;;;;;;13.77;12.38;;;;;;;;;;5084707;28;20267;-78
2022/06/29 03:37:18;;;;;;;15.60;11.95;;;;;;;;;;5084678;28;20209;-78
2022/06/29 03:39:45;;;;;;;12.45;11.40;;;;;;;;;;5077690;28;20299;-78
2022/06/29 03:42:12;;;;;;;12.82;11.35;;;;;;;;;;5079561;28;20311;-79
2022/06/29 03:44:39;;;;;;;12.02;10.95;;;;;;;;;;5088962;28;20304;-77
2022/06/29 03:47:07;;;;;;;12.50;11.30;;;;;;;;;;5089021;28;20685;-79
2022/06/29 03:49:38;;;;;;;14.77;13.18;;;;;;;;;;5086770;28;20209;-78
2022/06/29 03:52:05;;;;;;;16.77;14.98;;;;;;;;;;5061922;28;20310;-78
2022/06/29 03:54:33;;;;;;;12.20;11.10;;;;;;;;;;5087783;28;20941;-77
2022/06/29 03:57:00;;;;;;;11.18;10.18;;;;;;;;;;5087802;28;20643;-78
2022/06/29 03:59:27;;;;;;;10.82;9.82;;;;;;;;;;5086106;28;20274;-78
2022/06/29 04:01:54;;;;;;;10.70;9.80;;;;;;;;;;5088462;28;20448;-78
2022/06/29 04:04:22;;;;;;;11.05;10.15;;;;;;;;;;5071102;28;21009;-78
2022/06/29 04:06:49;;;;;;;10.77;9.68;;;;;;;;;;5080509;28;20292;-78
2022/06/29 04:09:16;;;;;;;10.90;9.80;;;;;;;;;;5086259;28;20292;-77
2022/06/29 04:11:52;;;;;;;10.80;9.45;;;;;;;;;;5088334;28;20236;-78
2022/06/29 04:14:20;;;;;;;11.57;9.27;;;;;;;;;;5072197;28;20286;-78
2022/06/29 04:16:48;;;;;;;10.13;8.32;;;;;;;;;;5080323;28;20299;-78
2022/06/29 04:19:15;;;;;;;10.45;9.40;;;;;;;;;;5074330;28;20284;-78
2022/06/29 04:21:43;;;;;;;10.15;9.25;;;;;;;;;;5090111;28;20248;-77
2022/06/29 04:24:10;;;;;;;10.32;9.13;;;;;;;;;;5074941;28;20248;-78
2022/06/29 04:26:37;;;;;;;10.88;9.98;;;;;;;;;;5071664;28;20198;-78
2022/06/29 04:29:06;;;;;;;10.15;9.35;;;;;;;;;;5076062;28;20197;-76
2022/06/29 04:31:33;;;;;;;10.48;9.60;;;;;;;;;;5077676;28;20347;-77
2022/06/29 04:34:01;;;;;;;10.80;9.90;;;;;;;;;;5095760;27;20202;-76
2022/06/29 04:36:30;;;;;;;10.65;9.75;;;;;;;;;;5059415;28;20287;-77
2022/06/29 04:38:57;;;;;;;11.32;10.18;;;;;;;;;;5071248;28;20244;-77
2022/06/29 04:41:25;;;;;;;13.10;10.65;;;;;;;;;;5063284;28;20225;-77
2022/06/29 04:43:52;;;;;;;11.07;9.95;;;;;;;;;;5074218;28;20652;-76
2022/06/29 04:46:19;;;;;;;12.57;10.43;;;;;;;;;;5083137;28;20241;-76
2022/06/29 04:48:55;;;;;;;11.55;10.25;;;;;;;;;;5072594;28;20200;-78
2022/06/29 04:51:23;;;;;;;12.27;11.00;;;;;;;;;;5070821;28;20242;-77
2022/06/29 04:53:55;;;;;;;11.15;10.15;;;;;;;;;;5074264;28;20196;-77
2022/06/29 04:56:24;;;;;;;13.98;11.68;;;;;;;;;;5075590;28;20205;-78
2022/06/29 04:58:53;;;;;;;18.15;15.05;;;;;;;;;;5078413;28;20201;-79
2022/06/29 05:01:22;;;;;;;17.10;14.63;;;;;;;;;;5073409;28;20229;-79
2022/06/29 05:03:49;;;;;;;23.42;17.83;;;;;;;;;;5078625;28;20204;-78
2022/06/29 05:06:16;;;;;;;18.33;14.00;;;;;;;;;;5078097;28;20355;-77
2022/06/29 05:08:44;;;;;;;14.50;13.10;;;;;;;;;;5080304;28;20240;-77
2022/06/29 05:11:14;;;;;;;14.90;13.23;;;;;;;;;;5084952;28;20220;-77
2022/06/29 05:13:41;;;;;;;17.67;16.08;;;;;;;;;;5073643;28;22773;-75
2022/06/29 05:16:09;;;;;;;13.63;12.40;;;;;;;;;;5077624;28;20258;-80
2022/06/29 05:18:37;;;;;;;13.43;12.23;;;;;;;;;;5082737;28;20281;-80
2022/06/29 05:21:06;;;;;;;12.13;11.02;;;;;;;;;;5077927;28;20228;-79
2022/06/29 05:23:33;;;;;;;11.77;10.77;;;;;;;;;;5058439;28;20268;-80
2022/06/29 05:26:01;;;;;;;12.20;11.20;;;;;;;;;;5079975;28;20307;-79
2022/06/29 05:28:28;;;;;;;13.68;12.30;;;;;;;;;;5074925;28;20232;-78
2022/06/29 05:30:55;;;;;;;11.60;10.60;;;;;;;;;;5081607;28;20348;-79
2022/06/29 05:33:22;;;;;;;12.02;10.60;;;;;;;;;;5083414;28;20205;-77
2022/06/29 05:35:50;;;;;;;12.00;10.80;;;;;;;;;;5080777;28;20308;-78
2022/06/29 05:38:17;;;;;;;11.20;10.20;;;;;;;;;;5078800;28;20617;-76
2022/06/29 05:40:45;;;;;;;12.50;11.25;;;;;;;;;;5080720;28;20300;-78
2022/06/29 05:43:12;;;;;;;12.50;11.30;;;;;;;;;;5075805;28;20211;-78
2022/06/29 05:45:39;;;;;;;13.68;12.02;;;;;;;;;;5082012;28;20328;-78
2022/06/29 05:48:07;;;;;;;11.43;10.32;;;;;;;;;;5080132;28;20565;-77
2022/06/29 05:50:34;;;;;;;11.70;10.70;;;;;;;;;;5076315;28;20269;-78
2022/06/29 05:53:01;;;;;;;11.63;10.63;;;;;;;;;;5082787;28;20218;-77
2022/06/29 05:55:29;;;;;;;12.02;10.82;;;;;;;;;;5050188;28;20295;-79
2022/06/29 05:57:56;;;;;;;11.82;10.73;;;;;;;;;;5083679;28;20300;-79
2022/06/29 06:00:23;;;;;;;11.23;10.27;;;;;;;;;;5063317;28;20333;-77
2022/06/29 06:02:52;;;;;;;10.52;9.73;;;;;;;;;;5083003;28;20241;-76
2022/06/29 06:05:19;;;;;;;10.80;9.90;;;;;;;;;;5084429;28;20317;-75
2022/06/29 06:07:46;;;;;;;11.52;10.38;;;;;;;;;;5071638;28;20744;-77
2022/06/29 06:10:14;;;;;;;11.02;9.95;;;;;;;;;;5081318;28;20281;-76
2022/06/29 06:12:41;;;;;;;11.35;10.45;;;;;;;;;;5073778;28;20286;-74
2022/06/29 06:15:09;;;;;;;11.10;10.10;;;;;;;;;;5072643;28;20324;-74
2022/06/29 06:17:36;;;;;;;12.15;11.05;;;;;;;;;;5075057;28;20243;-78
2022/06/29 06:20:03;;;;;;;11.52;10.52;;;;;;;;;;5076710;28;20302;-79
2022/06/29 06:22:31;;;;;;;10.70;9.77;;;;;;;;;;5074362;28;20620;-76
2022/06/29 06:24:58;;;;;;;12.10;11.05;;;;;;;;;;5078521;28;21698;-79
2022/06/29 06:27:25;;;;;;;11.55;10.48;;;;;;;;;;5081508;28;20197;-76
2022/06/29 06:29:52;;;;;;;12.05;11.05;;;;;;;;;;5083287;28;20692;-78
2022/06/29 06:32:20;;;;;;;11.25;10.25;;;;;;;;;;5090964;28;20317;-78
2022/06/29 06:34:47;;;;;;;10.20;9.20;;;;;;;;;;5095995;28;20662;-78
2022/06/29 06:37:14;;;;;;;10.90;9.98;;;;;;;;;;5080430;28;20267;-78
2022/06/29 06:41:21;;;;;;;12.00;10.70;;;;;;;;;;5082745;28;20286;-79
2022/06/29 06:42:29;;;;;;;11.00;10.10;;;;;;;;;;5075036;28;20521;-76
2022/06/29 06:44:56;;;;;;;9.88;9.00;;;;;;;;;;5071898;28;20291;-77
2022/06/29 06:47:23;;;;;;;9.25;8.45;;;;;;;;;;5075210;28;20387;-76
2022/06/29 06:49:52;;;;;;;9.52;8.82;;;;;;;;;;5076611;28;20192;-78
2022/06/29 06:52:19;;;;;;;9.93;9.02;;;;;;;;;;5080426;28;20282;-76
2022/06/29 06:54:46;;;;;;;9.80;8.82;;;;;;;;;;5087880;28;20201;-77
2022/06/29 06:57:13;;;;;;;8.82;8.02;;;;;;;;;;5093067;28;20230;-77
2022/06/29 06:59:40;;;;;;;9.13;8.32;;;;;;;;;;5078432;28;20200;-75
2022/06/29 07:02:08;;;;;;;12.27;8.50;;;;;;;;;;5066892;28;20316;-77
2022/06/29 07:04:35;;;;;;;9.48;8.73;;;;;;;;;;5074701;28;20196;-76
2022/06/29 07:07:02;;;;;;;9.85;8.95;;;;;;;;;;5069656;28;20827;-75
2022/06/29 07:09:33;;;;;;;8.30;7.60;;;;;;;;;;5083333;28;20224;-75
2022/06/29 07:12:00;;;;;;;9.18;8.40;;;;;;;;;;5072636;28;20766;-76
2022/06/29 07:14:27;;;;;;;8.82;8.05;;;;;;;;;;5080904;28;20213;-78
2022/06/29 07:16:55;;;;;;;8.50;7.70;;;;;;;;;;5068318;28;20299;-76
2022/06/29 07:19:22;;;;;;;8.23;7.50;;;;;;;;;;5062291;28;20276;-78
2022/06/29 07:21:50;;;;;;;8.95;8.25;;;;;;;;;;5064228;28;20577;-77
2022/06/29 07:24:17;;;;;;;8.63;7.82;;;;;;;;;;5064750;28;20389;-77
2022/06/29 07:26:44;;;;;;;8.60;7.80;;;;;;;;;;5062367;28;20233;-76
2022/06/29 07:29:12;;;;;;;8.93;8.02;;;;;;;;;;5074185;28;20215;-78
2022/06/29 07:31:39;;;;;;;8.75;7.95;;;;;;;;;;5047378;28;20221;-77
2022/06/29 07:34:06;;;;;;;7.78;7.07;;;;;;;;;;5079026;28;20297;-77
2022/06/29 07:36:34;;;;;;;8.82;8.02;;;;;;;;;;5082863;28;21686;-77
2022/06/29 07:39:01;;;;;;;8.50;7.78;;;;;;;;;;5083202;28;20240;-77
2022/06/29 07:41:28;;;;;;;7.47;6.40;;;;;;;;;;5079037;28;20656;-77
2022/06/29 07:43:56;;;;;;;7.93;7.32;;;;;;;;;;5065405;28;20205;-76
2022/06/29 07:46:23;;;;;;;7.18;6.68;;;;;;;;;;5052963;28;20231;-77
2022/06/29 07:48:51;;;;;;;8.00;7.20;;;;;;;;;;5061078;28;20815;-75
2022/06/29 07:51:18;;;;;;;7.60;6.97;;;;;;;;;;5066067;28;20269;-77
2022/06/29 07:53:46;;;;;;;7.68;6.97;;;;;;;;;;5063208;28;20291;-77
2022/06/29 07:56:13;;;;;;;7.35;6.75;;;;;;;;;;5054159;28;20236;-76
2022/06/29 07:58:40;;;;;;;5.60;5.20;;;;;;;;;;5059293;28;20765;-75
2022/06/29 08:01:08;;;;;;;5.65;5.13;;;;;;;;;;5058200;28;20341;-77
2022/06/29 08:03:35;;;;;;;5.75;5.10;;;;;;;;;;5060647;28;20745;-79
2022/06/29 08:06:05;;;;;;;5.47;5.07;;;;;;;;;;5060482;28;20218;-77
2022/06/29 08:08:32;;;;;;;4.25;3.95;;;;;;;;;;5055711;28;20208;-76
2022/06/29 08:11:00;;;;;;;3.92;3.63;;;;;;;;;;5063197;28;20202;-77
2022/06/29 08:13:27;;;;;;;5.35;4.72;;;;;;;;;;5080836;28;20650;-77
2022/06/29 08:15:54;;;;;;;4.32;4.03;;;;;;;;;;5072566;28;20288;-77
2022/06/29 08:18:21;;;;;;;6.68;6.10;;;;;;;;;;5061360;28;20655;-76
2022/06/29 08:20:49;;;;;;;5.28;4.85;;;;;;;;;;5076576;28;20290;-79
2022/06/29 08:23:16;;;;;;;6.30;5.70;;;;;;;;;;5074377;28;20208;-78
2022/06/29 08:25:43;;;;;;;5.43;3.78;;;;;;;;;;5073256;28;20324;-76
2022/06/29 08:28:30;;;;;;;4.60;4.18;;;;;;;;;;5072236;28;20215;-78
2022/06/29 08:30:58;;;;;;;4.20;3.90;;;;;;;;;;5084248;28;20615;-78
2022/06/29 08:33:25;;;;;;;4.05;3.45;;;;;;;;;;5070919;28;20253;-79
2022/06/29 08:35:52;;;;;;;5.13;4.45;;;;;;;;;;5076889;28;20232;-76
2022/06/29 08:38:19;;;;;;;4.47;4.07;;;;;;;;;;5072142;28;20217;-77
2022/06/29 08:40:47;;;;;;;5.70;4.75;;;;;;;;;;5074315;28;20291;-77
2022/06/29 08:43:16;;;;;;;5.10;4.68;;;;;;;;;;5077001;28;20244;-77
2022/06/29 08:45:47;;;;;;;4.43;4.03;;;;;;;;;;5076100;28;20216;-77
2022/06/29 08:48:15;;;;;;;4.50;4.10;;;;;;;;;;5074963;28;20237;-78
2022/06/29 08:50:43;;;;;;;4.78;4.38;;;;;;;;;;5084576;28;20266;-77
2022/06/29 08:53:13;;;;;;;4.38;3.97;;;;;;;;;;5077613;28;20193;-78
2022/06/29 08:55:45;;;;;;;4.45;3.85;;;;;;;;;;5085266;28;20296;-76
2022/06/29 08:58:18;;;;;;;4.85;3.90;;;;;;;;;;5079761;28;20239;-77
2022/06/29 09:00:45;;;;;;;4.40;4.03;;;;;;;;;;5082489;28;20208;-78
2022/06/29 09:03:15;;;;;;;4.28;3.92;;;;;;;;;;5073633;28;20200;-77
2022/06/29 09:05:47;;;;;;;5.13;3.95;;;;;;;;;;5072507;28;20213;-76
2022/06/29 09:08:15;;;;;;;7.63;6.18;;;;;;;;;;5077203;28;20605;-76
2022/06/29 09:10:42;;;;;;;4.45;4.05;;;;;;;;;;5079930;28;20277;-77
2022/06/29 09:13:09;;;;;;;4.32;3.90;;;;;;;;;;5061728;28;20223;-75
2022/06/29 09:15:38;;;;;;;4.22;3.70;;;;;;;;;;5062238;28;20279;-78
2022/06/29 09:18:26;;;;;;;4.18;3.78;;;;;;;;;;5083203;28;20631;-79
2022/06/29 09:20:55;;;;;;;4.72;3.60;;;;;;;;;;5086727;28;20197;-79
2022/06/29 09:23:23;;;;;;;3.85;3.20;;;;;;;;;;5085907;28;20340;-78
2022/06/29 09:25:50;;;;;;;3.22;2.92;;;;;;;;;;5079560;28;20315;-75
2022/06/29 09:28:33;;;;;;;4.45;3.58;;;;;;;;;;5069402;28;20270;-78
2022/06/29 09:31:01;;;;;;;4.80;3.65;;;;;;;;;;5072005;28;20645;-76
2022/06/29 09:33:30;;;;;;;3.88;3.58;;;;;;;;;;5084711;28;20200;-77
2022/06/29 09:36:14;;;;;;;4.22;3.83;;;;;;;;;;5082272;28;20208;-77
2022/06/29 09:38:42;;;;;;;4.20;3.50;;;;;;;;;;5080776;28;20215;-77
2022/06/29 09:41:10;;;;;;;3.88;3.58;;;;;;;;;;5083909;28;20308;-75
2022/06/29 09:43:44;;;;;;;3.90;3.55;;;;;;;;;;5076935;28;20308;-78
2022/06/29 09:46:12;;;;;;;3.90;3.55;;;;;;;;;;5071469;28;20229;-75
2022/06/29 09:48:40;;;;;;;3.80;3.50;;;;;;;;;;5075553;28;20201;-77
2022/06/29 09:53:59;;;;;;;4.30;3.75;;;;;;;;;;5084738;28;20261;-77
2022/06/29 09:56:29;;;;;;;7.85;3.88;;;;;;;;;;5089535;28;20232;-77
2022/06/29 09:58:58;;;;;;;3.88;3.47;;;;;;;;;;5071763;28;20233;-77
2022/06/29 10:04:13;;;;;;;4.93;4.25;;;;;;;;;;5085828;28;20905;-77
2022/06/29 10:06:41;;;;;;;4.53;3.45;;;;;;;;;;5083207;28;20601;-76
2022/06/29 10:09:08;;;;;;;3.67;3.20;;;;;;;;;;5066220;28;20300;-76
2022/06/29 10:14:43;;;;;;;3.20;2.90;;;;;;;;;;5066303;28;20212;-75
2022/06/29 10:17:29;;;;;;;5.10;3.28;;;;;;;;;;5074405;28;20710;-76
2022/06/29 10:20:05;;;;;;;3.13;2.88;;;;;;;;;;5079090;28;20208;-76
2022/06/29 10:22:32;;;;;;;3.15;2.85;;;;;;;;;;5067815;28;20256;-75
2022/06/29 10:25:08;;;;;;;4.38;2.95;;;;;;;;;;5078363;28;20954;-78
2022/06/29 10:27:36;;;;;;;5.53;3.35;;;;;;;;;;5072235;28;20236;-76
2022/06/29 10:30:19;;;;;;;3.10;2.80;;;;;;;;;;5073972;28;20254;-77
2022/06/29 10:32:47;;;;;;;3.55;3.20;;;;;;;;;;5056770;28;20251;-77
2022/06/29 10:35:14;;;;;;;4.43;2.90;;;;;;;;;;5070605;28;21182;-76
2022/06/29 10:37:52;;;;;;;3.95;2.90;;;;;;;;;;5062290;28;20221;-76
2022/06/29 10:40:24;;;;;;;4.10;2.88;;;;;;;;;;5069254;28;20468;-77
2022/06/29 10:43:07;;;;;;;4.13;2.92;;;;;;;;;;5066300;28;20698;-77
2022/06/29 10:45:36;;;;;;;4.95;3.05;;;;;;;;;;5061476;28;20215;-75
2022/06/29 10:48:07;;;;;;;3.42;2.58;;;;;;;;;;5060484;28;20813;-76
2022/06/29 10:50:40;;;;;;;4.07;2.80;;;;;;;;;;5059436;28;20213;-77
2022/06/29 10:53:12;;;;;;;2.70;2.50;;;;;;;;;;5048314;28;20225;-75
2022/06/29 10:55:41;;;;;;;5.35;3.60;;;;;;;;;;5046828;28;20300;-74
2022/06/29 10:58:08;;;;;;;3.83;3.50;;;;;;;;;;5062970;28;20209;-76
2022/06/29 11:00:40;;;;;;;4.55;3.92;;;;;;;;;;5079499;28;20254;-77
2022/06/29 11:03:12;;;;;;;4.63;4.22;;;;;;;;;;5083868;28;20220;-78
2022/06/29 11:14:00;;;;;;;4.38;3.70;;;;;;;;;;5059539;28;20254;-78
2022/06/29 11:16:29;;;;;;;6.85;3.70;;;;;;;;;;5070082;27;20289;-78
2022/06/29 11:18:57;;;;;;;3.50;3.20;;;;;;;;;;5062694;28;20228;-77
2022/06/29 11:21:24;;;;;;;6.10;3.40;;;;;;;;;;5063485;28;20319;-79
2022/06/29 11:24:05;;;;;;;4.55;3.15;;;;;;;;;;5063711;28;20210;-76
2022/06/29 11:26:34;;;;;;;3.03;2.55;;;;;;;;;;5059666;28;20235;-76
2022/06/29 11:29:02;;;;;;;3.42;3.13;;;;;;;;;;5058290;28;20935;-77
2022/06/29 11:31:29;;;;;;;3.72;3.42;;;;;;;;;;5055773;28;20941;-76
2022/06/29 11:33:57;;;;;;;3.28;2.88;;;;;;;;;;5058663;28;20232;-78
2022/06/29 11:36:28;;;;;;;3.38;3.08;;;;;;;;;;5056518;28;20250;-75
2022/06/29 11:38:56;;;;;;;3.50;2.70;;;;;;;;;;5063478;28;20739;-77
2022/06/29 11:44:27;;;;;;;3.25;2.95;;;;;;;;;;5061472;28;20610;-77
2022/06/29 11:47:19;;;;;;;3.67;2.72;;;;;;;;;;5084030;28;20220;-80
2022/06/29 11:49:46;;;;;;;11.13;5.38;;;;;;;;;;5070463;28;20342;-78
2022/06/29 11:52:13;;;;;;;3.03;2.70;;;;;;;;;;5081314;28;20257;-79
2022/06/29 11:54:48;;;;;;;3.35;2.55;;;;;;;;;;5070318;28;20651;-77
2022/06/29 11:57:17;;;;;;;4.40;2.67;;;;;;;;;;5062874;28;20362;-78
2022/06/29 11:59:46;;;;;;;2.90;2.53;;;;;;;;;;5059140;28;22008;-78
2022/06/29 12:02:14;;;;;;;2.90;2.70;;;;;;;;;;5057716;28;20770;-78
2022/06/29 12:04:42;;;;;;;3.47;2.95;;;;;;;;;;5064060;28;20208;-76
2022/06/29 12:07:11;;;;;;;2.88;2.60;;;;;;;;;;5048416;28;20641;-75
2022/06/29 12:09:40;;;;;;;5.45;2.70;;;;;;;;;;5062042;28;20338;-76
2022/06/29 12:12:11;;;;;;;4.60;2.70;;;;;;;;;;5065306;28;20290;-77
2022/06/29 12:14:40;;;;;;;2.92;2.42;;;;;;;;;;5061052;28;20732;-77
2022/06/29 12:17:09;;;;;;;3.17;2.58;;;;;;;;;;5063354;28;20227;-78
2022/06/29 12:19:39;;;;;;;3.15;2.30;;;;;;;;;;5061389;28;20204;-77
2022/06/29 12:22:07;;;;;;;3.60;2.80;;;;;;;;;;5056898;28;20319;-76
2022/06/29 12:24:34;;;;;;;3.05;2.65;;;;;;;;;;5062398;28;20680;-79
2022/06/29 12:27:02;;;;;;;3.28;2.97;;;;;;;;;;5060956;28;20346;-78
2022/06/29 12:29:29;;;;;;;2.88;2.65;;;;;;;;;;5056681;28;20216;-78
2022/06/29 12:31:57;;;;;;;6.13;2.53;;;;;;;;;;5054614;28;30840;-79
2022/06/29 12:34:25;;;;;;;3.55;2.88;;;;;;;;;;5056022;28;20763;-78
2022/06/29 12:36:57;;;;;;;3.97;2.97;;;;;;;;;;5056130;28;20226;-77
2022/06/29 12:39:24;;;;;;;5.15;3.20;;;;;;;;;;5067474;28;20219;-78
2022/06/29 12:41:53;;;;;;;4.13;2.80;;;;;;;;;;5074646;28;20256;-78
2022/06/29 12:44:20;;;;;;;3.10;2.80;;;;;;;;;;5067853;28;20205;-80
2022/06/29 12:46:48;;;;;;;3.40;3.10;;;;;;;;;;5077617;28;20635;-76
2022/06/29 12:49:15;;;;;;;2.85;2.65;;;;;;;;;;5072509;28;20297;-78
2022/06/29 12:51:43;;;;;;;3.65;3.08;;;;;;;;;;5059473;28;20235;-75
2022/06/29 12:54:10;;;;;;;5.45;2.88;;;;;;;;;;5044170;28;20217;-78
2022/06/29 12:56:38;;;;;;;3.92;2.88;;;;;;;;;;5042164;28;20750;-78
2022/06/29 12:59:06;;;;;;;3.42;3.13;;;;;;;;;;5053874;28;20228;-78
2022/06/29 13:01:34;;;;;;;4.10;3.70;;;;;;;;;;5055107;28;20347;-75
2022/06/29 13:04:02;;;;;;;4.88;3.20;;;;;;;;;;5056976;28;20206;-78
2022/06/29 13:06:30;;;;;;;3.28;3.03;;;;;;;;;;5060211;28;20201;-78
2022/06/29 13:08:57;;;;;;;4.47;3.05;;;;;;;;;;5059994;28;20284;-79
2022/06/29 13:11:25;;;;;;;4.53;3.20;;;;;;;;;;5059826;28;20305;-79
2022/06/29 13:13:52;;;;;;;4.60;3.08;;;;;;;;;;5064775;28;20353;-77
2022/06/29 13:16:25;;;;;;;3.17;2.97;;;;;;;;;;5047104;28;20304;-79
2022/06/29 13:18:53;;;;;;;4.40;2.88;;;;;;;;;;5057837;28;20218;-79
2022/06/29 13:21:20;;;;;;;3.65;3.25;;;;;;;;;;5076237;27;20228;-77
2022/06/29 13:23:48;;;;;;;5.53;3.30;;;;;;;;;;5056637;28;21864;-77
2022/06/29 13:26:15;;;;;;;3.42;3.10;;;;;;;;;;5055825;28;20219;-77
2022/06/29 13:28:43;;;;;;;3.72;2.85;;;;;;;;;;5054364;28;20228;-79
2022/06/29 13:31:11;;;;;;;3.40;3.03;;;;;;;;;;5054981;28;20235;-75
2022/06/29 13:33:38;;;;;;;3.55;3.25;;;;;;;;;;5055829;28;20389;-78
2022/06/29 13:36:06;;;;;;;4.88;3.17;;;;;;;;;;5041051;28;20241;-77
2022/06/29 13:38:33;;;;;;;3.83;3.45;;;;;;;;;;5046019;28;20961;-77
2022/06/29 13:41:01;;;;;;;6.00;3.35;;;;;;;;;;5054051;28;20237;-77
2022/06/29 13:43:28;;;;;;;3.15;2.83;;;;;;;;;;5056514;28;20208;-77
2022/06/29 13:45:56;;;;;;;3.95;3.00;;;;;;;;;;5075836;28;20310;-79
2022/06/29 13:48:23;;;;;;;4.05;3.30;;;;;;;;;;5055714;28;20234;-75
2022/06/29 13:50:50;;;;;;;4.20;3.80;;;;;;;;;;5062511;28;20334;-78
2022/06/29 13:53:18;;;;;;;4.95;4.47;;;;;;;;;;5058658;28;20205;-76
2022/06/29 13:55:45;;;;;;;5.00;4.57;;;;;;;;;;5058767;28;20236;-76
2022/06/29 13:58:17;;;;;;;5.35;4.07;;;;;;;;;;5059380;28;20673;-78
2022/06/29 14:00:44;;;;;;;4.80;3.92;;;;;;;;;;5051231;28;20249;-77
2022/06/29 14:03:11;;;;;;;4.13;3.83;;;;;;;;;;5044442;28;20301;-76
2022/06/29 14:05:39;;;;;;;3.88;3.42;;;;;;;;;;5065635;28;20220;-77
2022/06/29 14:08:06;;;;;;;4.18;3.72;;;;;;;;;;5069273;28;20877;-78
2022/06/29 14:10:54;;;;;;;7.07;3.88;;;;;;;;;;5081341;28;20215;-80
2022/06/29 14:13:21;;;;;;;4.35;3.65;;;;;;;;;;5060457;28;20297;-80
2022/06/29 14:15:49;;;;;;;6.20;4.85;;;;;;;;;;5060191;28;20227;-77
2022/06/29 14:18:16;;;;;;;7.28;5.20;;;;;;;;;;5073255;28;20239;-79
2022/06/29 14:20:43;;;;;;;5.40;4.90;;;;;;;;;;5070682;28;20299;-79
2022/06/29 14:23:11;;;;;;;5.13;4.68;;;;;;;;;;5080815;28;20367;-78
2022/06/29 14:25:38;;;;;;;6.40;4.47;;;;;;;;;;5080351;28;20318;-77
2022/06/29 14:28:05;;;;;;;5.55;4.90;;;;;;;;;;5077236;28;20347;-78
2022/06/29 14:30:33;;;;;;;5.07;4.35;;;;;;;;;;5073861;28;20228;-78
2022/06/29 14:33:00;;;;;;;4.70;4.30;;;;;;;;;;5070392;28;20248;-78
2022/06/29 14:35:28;;;;;;;4.80;4.40;;;;;;;;;;5088741;28;20295;-76
2022/06/29 14:37:55;;;;;;;4.78;4.38;;;;;;;;;;5093681;28;20655;-79
2022/06/29 14:40:22;;;;;;;4.97;3.90;;;;;;;;;;5064289;28;20715;-78
2022/06/29 14:42:50;;;;;;;5.18;4.05;;;;;;;;;;5067274;28;20756;-76
2022/06/29 14:45:17;;;;;;;4.88;4.30;;;;;;;;;;5063259;28;21305;-78
2022/06/29 14:47:44;;;;;;;5.82;4.00;;;;;;;;;;5069554;28;20720;-77
2022/06/29 14:50:12;;;;;;;4.45;3.90;;;;;;;;;;5044977;28;20219;-78
2022/06/29 14:52:39;;;;;;;4.57;3.88;;;;;;;;;;5058926;28;20263;-78
2022/06/29 14:55:08;;;;;;;3.95;3.42;;;;;;;;;;5071024;28;20286;-78
2022/06/29 14:57:35;;;;;;;6.68;4.47;;;;;;;;;;5080047;28;20231;-77
2022/06/29 15:00:06;;;;;;;4.07;3.58;;;;;;;;;;5084922;28;20766;-78
2022/06/29 15:02:34;;;;;;;6.22;3.85;;;;;;;;;;5078506;28;20224;-77
2022/06/29 15:05:01;;;;;;;5.05;3.35;;;;;;;;;;5067497;28;20239;-76